sensor_id;sensor_type;location;lat;lon;timestamp;P1;durP1;ratioP1;P2;durP2;ratioP2
68888;SDS011;55930;47.412;8.790;2023-04-24T00:01:44;1.03;;;0.70;;
68888;SDS011;55930;47.412;8.790;2023-04-24T00:05:04;0.97;;;0.87;;
68888;SDS011;55930;47.412;8.790;2023-04-24T00:08:28;1.58;;;0.98;;
68888;SDS011;55930;47.412;8.790;2023-04-24T00:11:48;0.93;;;0.73;;
68888;SDS011;55930;47.412;8.790;2023-04-24T00:15:09;1.27;;;0.90;;
68888;SDS011;55930;47.412;8.790;2023-04-24T00:18:30;1.55;;;0.90;;
68888;SDS011;55930;47.412;8.790;2023-04-24T00:21:50;2.07;;;1.00;;
68888;SDS011;55930;47.412;8.790;2023-04-24T00:25:13;1.97;;;1.20;;
68888;SDS011;55930;47.412;8.790;2023-04-24T00:28:33;3.03;;;1.40;;
68888;SDS011;55930;47.412;8.790;2023-04-24T00:31:54;2.17;;;1.40;;
68888;SDS011;55930;47.412;8.790;2023-04-24T00:35:17;3.05;;;1.35;;
68888;SDS011;55930;47.412;8.790;2023-04-24T00:38:39;3.28;;;1.40;;
68888;SDS011;55930;47.412;8.790;2023-04-24T00:42:00;3.50;;;1.40;;
68888;SDS011;55930;47.412;8.790;2023-04-24T00:48:42;1.43;;;1.10;;
68888;SDS011;55930;47.412;8.790;2023-04-24T00:52:03;1.63;;;1.13;;
68888;SDS011;55930;47.412;8.790;2023-04-24T00:55:27;2.70;;;0.90;;
68888;SDS011;55930;47.412;8.790;2023-04-24T00:58:51;1.33;;;0.93;;
68888;SDS011;55930;47.412;8.790;2023-04-24T01:02:12;1.40;;;0.80;;
68888;SDS011;55930;47.412;8.790;2023-04-24T01:05:33;3.00;;;0.90;;
68888;SDS011;55930;47.412;8.790;2023-04-24T01:08:54;1.40;;;0.70;;
68888;SDS011;55930;47.412;8.790;2023-04-24T01:12:15;1.48;;;0.75;;
68888;SDS011;55930;47.412;8.790;2023-04-24T01:15:36;1.00;;;0.40;;
68888;SDS011;55930;47.412;8.790;2023-04-24T01:18:56;1.10;;;0.50;;
68888;SDS011;55930;47.412;8.790;2023-04-24T01:22:19;0.75;;;0.52;;
68888;SDS011;55930;47.412;8.790;2023-04-24T01:25:40;3.15;;;0.40;;
68888;SDS011;55930;47.412;8.790;2023-04-24T01:29:01;0.40;;;0.40;;
68888;SDS011;55930;47.412;8.790;2023-04-24T01:32:21;1.27;;;0.50;;
68888;SDS011;55930;47.412;8.790;2023-04-24T01:35:42;0.83;;;0.63;;
68888;SDS011;55930;47.412;8.790;2023-04-24T01:39:02;0.70;;;0.53;;
68888;SDS011;55930;47.412;8.790;2023-04-24T01:42:23;1.40;;;0.43;;
68888;SDS011;55930;47.412;8.790;2023-04-24T01:45:44;0.40;;;0.40;;
68888;SDS011;55930;47.412;8.790;2023-04-24T01:49:04;2.70;;;0.57;;
68888;SDS011;55930;47.412;8.790;2023-04-24T01:52:25;1.17;;;0.68;;
68888;SDS011;55930;47.412;8.790;2023-04-24T01:55:49;1.38;;;0.52;;
68888;SDS011;55930;47.412;8.790;2023-04-24T01:59:12;2.03;;;0.60;;
68888;SDS011;55930;47.412;8.790;2023-04-24T02:02:33;1.00;;;0.30;;
68888;SDS011;55930;47.412;8.790;2023-04-24T02:05:53;1.50;;;0.50;;
68888;SDS011;55930;47.412;8.790;2023-04-24T02:09:14;0.73;;;0.50;;
68888;SDS011;55930;47.412;8.790;2023-04-24T02:12:34;0.40;;;0.40;;
68888;SDS011;55930;47.412;8.790;2023-04-24T02:15:55;1.00;;;0.50;;
68888;SDS011;55930;47.412;8.790;2023-04-24T02:19:15;0.80;;;0.80;;
68888;SDS011;55930;47.412;8.790;2023-04-24T02:22:38;0.50;;;0.50;;
68888;SDS011;55930;47.412;8.790;2023-04-24T02:26:01;0.47;;;0.47;;
68888;SDS011;55930;47.412;8.790;2023-04-24T02:29:21;0.90;;;0.30;;
68888;SDS011;55930;47.412;8.790;2023-04-24T02:32:44;0.82;;;0.30;;
68888;SDS011;55930;47.412;8.790;2023-04-24T02:36:05;0.43;;;0.37;;
68888;SDS011;55930;47.412;8.790;2023-04-24T02:39:25;0.50;;;0.30;;
68888;SDS011;55930;47.412;8.790;2023-04-24T02:42:45;0.30;;;0.30;;
68888;SDS011;55930;47.412;8.790;2023-04-24T02:46:08;0.20;;;0.20;;
68888;SDS011;55930;47.412;8.790;2023-04-24T02:49:29;0.23;;;0.23;;
68888;SDS011;55930;47.412;8.790;2023-04-24T02:52:49;0.40;;;0.40;;
68888;SDS011;55930;47.412;8.790;2023-04-24T02:56:09;0.20;;;0.20;;
68888;SDS011;55930;47.412;8.790;2023-04-24T02:59:34;0.30;;;0.30;;
68888;SDS011;55930;47.412;8.790;2023-04-24T03:02:55;0.30;;;0.30;;
68888;SDS011;55930;47.412;8.790;2023-04-24T03:06:15;1.33;;;0.33;;
68888;SDS011;55930;47.412;8.790;2023-04-24T03:09:35;0.47;;;0.33;;
68888;SDS011;55930;47.412;8.790;2023-04-24T03:12:56;0.63;;;0.37;;
68888;SDS011;55930;47.412;8.790;2023-04-24T03:16:16;4.27;;;0.63;;
68888;SDS011;55930;47.412;8.790;2023-04-24T03:19:37;0.77;;;0.40;;
68888;SDS011;55930;47.412;8.790;2023-04-24T03:22:57;0.30;;;0.30;;
68888;SDS011;55930;47.412;8.790;2023-04-24T03:26:17;0.20;;;0.20;;
68888;SDS011;55930;47.412;8.790;2023-04-24T03:29:38;0.43;;;0.30;;
68888;SDS011;55930;47.412;8.790;2023-04-24T03:32:58;0.93;;;0.50;;
68888;SDS011;55930;47.412;8.790;2023-04-24T03:36:19;2.37;;;0.47;;
68888;SDS011;55930;47.412;8.790;2023-04-24T03:39:39;0.30;;;0.30;;
68888;SDS011;55930;47.412;8.790;2023-04-24T03:42:59;0.50;;;0.40;;
68888;SDS011;55930;47.412;8.790;2023-04-24T03:46:20;0.97;;;0.50;;
68888;SDS011;55930;47.412;8.790;2023-04-24T03:49:40;0.63;;;0.43;;
68888;SDS011;55930;47.412;8.790;2023-04-24T03:53:00;3.27;;;0.60;;
68888;SDS011;55930;47.412;8.790;2023-04-24T03:56:21;0.30;;;0.30;;
68888;SDS011;55930;47.412;8.790;2023-04-24T03:59:41;0.63;;;0.50;;
68888;SDS011;55930;47.412;8.790;2023-04-24T04:03:04;0.65;;;0.40;;
68888;SDS011;55930;47.412;8.790;2023-04-24T04:06:25;0.70;;;0.40;;
68888;SDS011;55930;47.412;8.790;2023-04-24T04:09:46;0.50;;;0.43;;
68888;SDS011;55930;47.412;8.790;2023-04-24T04:13:07;1.27;;;0.40;;
68888;SDS011;55930;47.412;8.790;2023-04-24T04:16:27;0.53;;;0.40;;
68888;SDS011;55930;47.412;8.790;2023-04-24T04:19:48;0.30;;;0.30;;
68888;SDS011;55930;47.412;8.790;2023-04-24T04:23:10;0.75;;;0.40;;
68888;SDS011;55930;47.412;8.790;2023-04-24T04:26:31;0.97;;;0.30;;
68888;SDS011;55930;47.412;8.790;2023-04-24T04:29:52;0.30;;;0.30;;
68888;SDS011;55930;47.412;8.790;2023-04-24T04:33:13;0.43;;;0.43;;
68888;SDS011;55930;47.412;8.790;2023-04-24T04:36:34;0.60;;;0.28;;
68888;SDS011;55930;47.412;8.790;2023-04-24T04:39:59;1.35;;;0.30;;
68888;SDS011;55930;47.412;8.790;2023-04-24T04:43:20;0.43;;;0.30;;
68888;SDS011;55930;47.412;8.790;2023-04-24T04:46:41;1.10;;;0.30;;
68888;SDS011;55930;47.412;8.790;2023-04-24T04:50:02;1.67;;;0.28;;
68888;SDS011;55930;47.412;8.790;2023-04-24T04:53:23;0.30;;;0.30;;
68888;SDS011;55930;47.412;8.790;2023-04-24T04:56:44;1.90;;;0.30;;
68888;SDS011;55930;47.412;8.790;2023-04-24T05:00:07;0.68;;;0.30;;
68888;SDS011;55930;47.412;8.790;2023-04-24T05:03:30;0.20;;;0.20;;
68888;SDS011;55930;47.412;8.790;2023-04-24T05:06:51;1.73;;;0.20;;
68888;SDS011;55930;47.412;8.790;2023-04-24T05:10:11;0.33;;;0.30;;
68888;SDS011;55930;47.412;8.790;2023-04-24T05:13:31;0.87;;;0.40;;
68888;SDS011;55930;47.412;8.790;2023-04-24T05:16:52;0.43;;;0.30;;
68888;SDS011;55930;47.412;8.790;2023-04-24T05:20:12;0.80;;;0.30;;
68888;SDS011;55930;47.412;8.790;2023-04-24T05:23:33;0.43;;;0.40;;
68888;SDS011;55930;47.412;8.790;2023-04-24T05:26:53;0.53;;;0.40;;
68888;SDS011;55930;47.412;8.790;2023-04-24T05:30:14;0.87;;;0.40;;
68888;SDS011;55930;47.412;8.790;2023-04-24T05:33:34;0.87;;;0.50;;
68888;SDS011;55930;47.412;8.790;2023-04-24T05:36:55;2.57;;;0.60;;
68888;SDS011;55930;47.412;8.790;2023-04-24T05:40:17;0.47;;;0.30;;
68888;SDS011;55930;47.412;8.790;2023-04-24T05:43:38;1.02;;;0.50;;
68888;SDS011;55930;47.412;8.790;2023-04-24T05:46:58;2.13;;;0.53;;
68888;SDS011;55930;47.412;8.790;2023-04-24T05:50:19;0.50;;;0.50;;
68888;SDS011;55930;47.412;8.790;2023-04-24T05:53:39;1.43;;;0.50;;
68888;SDS011;55930;47.412;8.790;2023-04-24T05:56:59;1.17;;;0.50;;
68888;SDS011;55930;47.412;8.790;2023-04-24T06:00:24;0.75;;;0.60;;
68888;SDS011;55930;47.412;8.790;2023-04-24T06:03:48;2.00;;;0.75;;
68888;SDS011;55930;47.412;8.790;2023-04-24T06:07:10;1.67;;;0.70;;
68888;SDS011;55930;47.412;8.790;2023-04-24T06:10:31;1.95;;;1.13;;
68888;SDS011;55930;47.412;8.790;2023-04-24T06:13:51;1.13;;;0.80;;
68888;SDS011;55930;47.412;8.790;2023-04-24T06:17:12;2.50;;;1.43;;
68888;SDS011;55930;47.412;8.790;2023-04-24T06:20:32;3.93;;;1.60;;
68888;SDS011;55930;47.412;8.790;2023-04-24T06:23:55;2.35;;;1.60;;
68888;SDS011;55930;47.412;8.790;2023-04-24T06:27:18;3.67;;;1.58;;
68888;SDS011;55930;47.412;8.790;2023-04-24T06:30:38;1.80;;;1.53;;
68888;SDS011;55930;47.412;8.790;2023-04-24T06:34:01;2.03;;;1.50;;
68888;SDS011;55930;47.412;8.790;2023-04-24T06:37:22;5.22;;;2.08;;
68888;SDS011;55930;47.412;8.790;2023-04-24T06:40:43;2.10;;;1.60;;
68888;SDS011;55930;47.412;8.790;2023-04-24T06:44:06;6.38;;;1.70;;
68888;SDS011;55930;47.412;8.790;2023-04-24T06:47:27;3.65;;;1.70;;
68888;SDS011;55930;47.412;8.790;2023-04-24T06:50:47;2.00;;;1.50;;
68888;SDS011;55930;47.412;8.790;2023-04-24T06:54:07;1.80;;;1.40;;
68888;SDS011;55930;47.412;8.790;2023-04-24T06:57:28;3.33;;;1.97;;
68888;SDS011;55930;47.412;8.790;2023-04-24T07:00:49;1.33;;;1.20;;
68888;SDS011;55930;47.412;8.790;2023-04-24T07:04:10;1.30;;;1.20;;
68888;SDS011;55930;47.412;8.790;2023-04-24T07:07:32;2.35;;;1.40;;
68888;SDS011;55930;47.412;8.790;2023-04-24T07:10:54;1.73;;;1.10;;
68888;SDS011;55930;47.412;8.790;2023-04-24T07:14:14;1.33;;;1.00;;
68888;SDS011;55930;47.412;8.790;2023-04-24T07:17:35;1.80;;;0.90;;
68888;SDS011;55930;47.412;8.790;2023-04-24T07:20:57;1.00;;;0.90;;
68888;SDS011;55930;47.412;8.790;2023-04-24T07:24:17;2.13;;;0.90;;
68888;SDS011;55930;47.412;8.790;2023-04-24T07:27:38;1.95;;;0.90;;
68888;SDS011;55930;47.412;8.790;2023-04-24T07:30:59;3.57;;;0.93;;
68888;SDS011;55930;47.412;8.790;2023-04-24T07:34:19;3.37;;;1.17;;
68888;SDS011;55930;47.412;8.790;2023-04-24T07:37:40;2.47;;;1.27;;
68888;SDS011;55930;47.412;8.790;2023-04-24T07:41:05;2.38;;;1.30;;
68888;SDS011;55930;47.412;8.790;2023-04-24T07:44:25;1.53;;;1.20;;
68888;SDS011;55930;47.412;8.790;2023-04-24T07:47:46;1.80;;;1.03;;
68888;SDS011;55930;47.412;8.790;2023-04-24T07:51:06;2.37;;;1.30;;
68888;SDS011;55930;47.412;8.790;2023-04-24T07:54:28;2.47;;;1.13;;
68888;SDS011;55930;47.412;8.790;2023-04-24T07:57:49;2.22;;;1.20;;
68888;SDS011;55930;47.412;8.790;2023-04-24T08:01:10;2.10;;;1.20;;
68888;SDS011;55930;47.412;8.790;2023-04-24T08:04:30;1.50;;;1.20;;
68888;SDS011;55930;47.412;8.790;2023-04-24T08:07:53;2.08;;;1.08;;
68888;SDS011;55930;47.412;8.790;2023-04-24T08:11:14;4.88;;;1.20;;
68888;SDS011;55930;47.412;8.790;2023-04-24T08:14:34;3.77;;;1.47;;
68888;SDS011;55930;47.412;8.790;2023-04-24T08:17:55;3.37;;;1.30;;
68888;SDS011;55930;47.412;8.790;2023-04-24T08:21:15;2.73;;;1.30;;
68888;SDS011;55930;47.412;8.790;2023-04-24T08:24:38;3.53;;;1.80;;
68888;SDS011;55930;47.412;8.790;2023-04-24T08:27:59;5.37;;;2.00;;
68888;SDS011;55930;47.412;8.790;2023-04-24T08:31:19;3.93;;;1.70;;
68888;SDS011;55930;47.412;8.790;2023-04-24T08:34:39;3.90;;;2.20;;
68888;SDS011;55930;47.412;8.790;2023-04-24T08:38:00;3.60;;;2.20;;
68888;SDS011;55930;47.412;8.790;2023-04-24T08:41:20;5.03;;;2.33;;
68888;SDS011;55930;47.412;8.790;2023-04-24T08:44:45;4.13;;;2.42;;
68888;SDS011;55930;47.412;8.790;2023-04-24T08:48:05;5.05;;;2.17;;
68888;SDS011;55930;47.412;8.790;2023-04-24T08:51:29;6.07;;;2.55;;
68888;SDS011;55930;47.412;8.790;2023-04-24T08:54:51;3.33;;;2.40;;
68888;SDS011;55930;47.412;8.790;2023-04-24T08:58:13;6.18;;;3.10;;
68888;SDS011;55930;47.412;8.790;2023-04-24T09:01:36;3.17;;;1.98;;
68888;SDS011;55930;47.412;8.790;2023-04-24T09:04:57;5.65;;;2.80;;
68888;SDS011;55930;47.412;8.790;2023-04-24T09:08:19;6.03;;;2.50;;
68888;SDS011;55930;47.412;8.790;2023-04-24T09:11:39;3.72;;;2.47;;
68888;SDS011;55930;47.412;8.790;2023-04-24T09:15:00;5.00;;;2.58;;
68888;SDS011;55930;47.412;8.790;2023-04-24T09:18:23;8.27;;;3.17;;
68888;SDS011;55930;47.412;8.790;2023-04-24T09:21:53;7.57;;;3.03;;
68888;SDS011;55930;47.412;8.790;2023-04-24T09:25:14;9.35;;;2.90;;
68888;SDS011;55930;47.412;8.790;2023-04-24T09:28:38;5.50;;;2.80;;
68888;SDS011;55930;47.412;8.790;2023-04-24T09:32:06;4.47;;;2.70;;
68888;SDS011;55930;47.412;8.790;2023-04-24T09:35:41;4.50;;;2.28;;
68888;SDS011;55930;47.412;8.790;2023-04-24T09:39:04;4.45;;;3.05;;
68888;SDS011;55930;47.412;8.790;2023-04-24T09:42:28;4.85;;;2.40;;
68888;SDS011;55930;47.412;8.790;2023-04-24T09:45:49;6.07;;;2.90;;
68888;SDS011;55930;47.412;8.790;2023-04-24T09:49:19;3.92;;;2.15;;
68888;SDS011;55930;47.412;8.790;2023-04-24T09:52:47;6.68;;;2.70;;
68888;SDS011;55930;47.412;8.790;2023-04-24T09:56:16;5.68;;;2.22;;
68888;SDS011;55930;47.412;8.790;2023-04-24T09:59:41;3.63;;;2.03;;
68888;SDS011;55930;47.412;8.790;2023-04-24T10:03:04;3.17;;;1.90;;
68888;SDS011;55930;47.412;8.790;2023-04-24T10:06:35;4.28;;;2.13;;
68888;SDS011;55930;47.412;8.790;2023-04-24T10:09:58;3.13;;;1.92;;
68888;SDS011;55930;47.412;8.790;2023-04-24T10:13:19;6.78;;;2.10;;
68888;SDS011;55930;47.412;8.790;2023-04-24T10:16:40;4.65;;;2.00;;
68888;SDS011;55930;47.412;8.790;2023-04-24T10:20:02;6.00;;;2.58;;
68888;SDS011;55930;47.412;8.790;2023-04-24T10:23:23;6.63;;;2.08;;
68888;SDS011;55930;47.412;8.790;2023-04-24T10:26:45;3.33;;;1.80;;
68888;SDS011;55930;47.412;8.790;2023-04-24T10:30:08;3.88;;;2.15;;
68888;SDS011;55930;47.412;8.790;2023-04-24T10:33:31;4.50;;;1.83;;
68888;SDS011;55930;47.412;8.790;2023-04-24T10:36:52;3.58;;;1.70;;
68888;SDS011;55930;47.412;8.790;2023-04-24T10:40:18;3.40;;;1.77;;
68888;SDS011;55930;47.412;8.790;2023-04-24T10:43:39;5.15;;;2.00;;
68888;SDS011;55930;47.412;8.790;2023-04-24T10:47:00;2.75;;;1.77;;
68888;SDS011;55930;47.412;8.790;2023-04-24T10:50:21;5.05;;;2.30;;
68888;SDS011;55930;47.412;8.790;2023-04-24T10:53:42;2.33;;;1.73;;
68888;SDS011;55930;47.412;8.790;2023-04-24T11:00:42;2.67;;;1.63;;
68888;SDS011;55930;47.412;8.790;2023-04-24T11:04:04;4.18;;;1.90;;
68888;SDS011;55930;47.412;8.790;2023-04-24T11:07:25;5.97;;;2.30;;
68888;SDS011;55930;47.412;8.790;2023-04-24T11:10:46;3.50;;;1.45;;
68888;SDS011;55930;47.412;8.790;2023-04-24T11:14:14;3.60;;;1.73;;
68888;SDS011;55930;47.412;8.790;2023-04-24T11:17:36;2.33;;;1.67;;
68888;SDS011;55930;47.412;8.790;2023-04-24T11:20:58;8.20;;;2.00;;
68888;SDS011;55930;47.412;8.790;2023-04-24T11:24:29;4.10;;;1.90;;
68888;SDS011;55930;47.412;8.790;2023-04-24T11:28:02;2.10;;;1.35;;
68888;SDS011;55930;47.412;8.790;2023-04-24T11:31:40;2.78;;;1.50;;
68888;SDS011;55930;47.412;8.790;2023-04-24T11:38:29;7.10;;;1.95;;
68888;SDS011;55930;47.412;8.790;2023-04-24T11:41:49;3.25;;;1.90;;
68888;SDS011;55930;47.412;8.790;2023-04-24T11:45:11;4.07;;;1.95;;
68888;SDS011;55930;47.412;8.790;2023-04-24T11:48:36;4.32;;;1.75;;
68888;SDS011;55930;47.412;8.790;2023-04-24T11:52:00;4.10;;;1.80;;
68888;SDS011;55930;47.412;8.790;2023-04-24T12:02:02;3.77;;;1.90;;
68888;SDS011;55930;47.412;8.790;2023-04-24T12:05:24;3.65;;;2.00;;
68888;SDS011;55930;47.412;8.790;2023-04-24T12:08:52;3.20;;;1.65;;
68888;SDS011;55930;47.412;8.790;2023-04-24T12:12:18;2.65;;;1.52;;
68888;SDS011;55930;47.412;8.790;2023-04-24T12:15:39;4.38;;;1.75;;
68888;SDS011;55930;47.412;8.790;2023-04-24T12:19:00;2.10;;;1.40;;
68888;SDS011;55930;47.412;8.790;2023-04-24T12:22:22;3.53;;;1.67;;
68888;SDS011;55930;47.412;8.790;2023-04-24T12:29:03;2.60;;;1.30;;
68888;SDS011;55930;47.412;8.790;2023-04-24T12:32:24;2.58;;;1.75;;
68888;SDS011;55930;47.412;8.790;2023-04-24T12:35:48;2.63;;;1.60;;
68888;SDS011;55930;47.412;8.790;2023-04-24T12:39:17;6.07;;;1.73;;
68888;SDS011;55930;47.412;8.790;2023-04-24T12:42:43;3.35;;;1.60;;
68888;SDS011;55930;47.412;8.790;2023-04-24T12:46:08;3.60;;;1.80;;
68888;SDS011;55930;47.412;8.790;2023-04-24T12:49:29;4.00;;;2.00;;
68888;SDS011;55930;47.412;8.790;2023-04-24T12:52:50;5.13;;;1.70;;
68888;SDS011;55930;47.412;8.790;2023-04-24T12:56:10;4.25;;;1.40;;
68888;SDS011;55930;47.412;8.790;2023-04-24T13:02:51;3.23;;;1.67;;
68888;SDS011;55930;47.412;8.790;2023-04-24T13:09:33;2.93;;;1.20;;
68888;SDS011;55930;47.412;8.790;2023-04-24T13:12:54;4.40;;;1.55;;
68888;SDS011;55930;47.412;8.790;2023-04-24T13:16:15;1.67;;;1.42;;
68888;SDS011;55930;47.412;8.790;2023-04-24T13:19:36;3.67;;;1.90;;
68888;SDS011;55930;47.412;8.790;2023-04-24T13:22:58;2.70;;;1.30;;
68888;SDS011;55930;47.412;8.790;2023-04-24T13:26:18;1.52;;;1.00;;
68888;SDS011;55930;47.412;8.790;2023-04-24T13:29:38;2.83;;;1.40;;
68888;SDS011;55930;47.412;8.790;2023-04-24T13:32:59;2.45;;;1.23;;
68888;SDS011;55930;47.412;8.790;2023-04-24T13:36:19;2.30;;;1.40;;
68888;SDS011;55930;47.412;8.790;2023-04-24T13:39:40;2.20;;;1.17;;
68888;SDS011;55930;47.412;8.790;2023-04-24T13:43:01;1.52;;;1.00;;
68888;SDS011;55930;47.412;8.790;2023-04-24T13:46:22;3.97;;;2.03;;
68888;SDS011;55930;47.412;8.790;2023-04-24T13:49:42;2.00;;;1.23;;
68888;SDS011;55930;47.412;8.790;2023-04-24T13:53:03;3.70;;;1.50;;
68888;SDS011;55930;47.412;8.790;2023-04-24T13:56:23;3.30;;;1.33;;
68888;SDS011;55930;47.412;8.790;2023-04-24T13:59:44;2.83;;;1.50;;
68888;SDS011;55930;47.412;8.790;2023-04-24T14:03:05;3.10;;;1.27;;
68888;SDS011;55930;47.412;8.790;2023-04-24T14:06:28;3.92;;;1.40;;
68888;SDS011;55930;47.412;8.790;2023-04-24T14:09:48;2.38;;;1.30;;
68888;SDS011;55930;47.412;8.790;2023-04-24T14:13:09;4.30;;;2.22;;
68888;SDS011;55930;47.412;8.790;2023-04-24T14:16:30;2.55;;;1.73;;
68888;SDS011;55930;47.412;8.790;2023-04-24T14:19:50;3.92;;;1.73;;
68888;SDS011;55930;47.412;8.790;2023-04-24T14:23:12;4.55;;;1.70;;
68888;SDS011;55930;47.412;8.790;2023-04-24T14:26:32;5.15;;;2.00;;
68888;SDS011;55930;47.412;8.790;2023-04-24T14:29:52;2.85;;;1.80;;
68888;SDS011;55930;47.412;8.790;2023-04-24T14:33:13;3.20;;;1.63;;
68888;SDS011;55930;47.412;8.790;2023-04-24T14:36:34;3.35;;;1.60;;
68888;SDS011;55930;47.412;8.790;2023-04-24T14:39:55;3.33;;;1.80;;
68888;SDS011;55930;47.412;8.790;2023-04-24T14:43:15;2.53;;;1.77;;
68888;SDS011;55930;47.412;8.790;2023-04-24T14:49:56;2.70;;;1.70;;
68888;SDS011;55930;47.412;8.790;2023-04-24T14:56:37;4.40;;;2.10;;
68888;SDS011;55930;47.412;8.790;2023-04-24T15:00:00;4.20;;;1.80;;
68888;SDS011;55930;47.412;8.790;2023-04-24T15:03:25;3.42;;;1.80;;
68888;SDS011;55930;47.412;8.790;2023-04-24T15:06:46;1.73;;;1.60;;
68888;SDS011;55930;47.412;8.790;2023-04-24T15:13:27;1.80;;;1.57;;
68888;SDS011;55930;47.412;8.790;2023-04-24T15:16:48;5.10;;;2.00;;
68888;SDS011;55930;47.412;8.790;2023-04-24T15:20:08;2.75;;;1.65;;
68888;SDS011;55930;47.412;8.790;2023-04-24T15:23:29;4.13;;;1.90;;
68888;SDS011;55930;47.412;8.790;2023-04-24T15:30:10;3.47;;;1.67;;
68888;SDS011;55930;47.412;8.790;2023-04-24T15:33:32;2.22;;;1.52;;
68888;SDS011;55930;47.412;8.790;2023-04-24T15:36:54;2.20;;;1.38;;
68888;SDS011;55930;47.412;8.790;2023-04-24T15:40:15;4.57;;;1.55;;
68888;SDS011;55930;47.412;8.790;2023-04-24T15:46:56;4.13;;;1.63;;
68888;SDS011;55930;47.412;8.790;2023-04-24T15:50:16;1.75;;;1.33;;
68888;SDS011;55930;47.412;8.790;2023-04-24T15:53:41;3.03;;;1.50;;
68888;SDS011;55930;47.412;8.790;2023-04-24T15:57:02;4.05;;;1.92;;
68888;SDS011;55930;47.412;8.790;2023-04-24T16:00:22;4.00;;;1.55;;
68888;SDS011;55930;47.412;8.790;2023-04-24T16:03:43;2.25;;;1.30;;
68888;SDS011;55930;47.412;8.790;2023-04-24T16:07:07;2.50;;;1.60;;
68888;SDS011;55930;47.412;8.790;2023-04-24T16:10:28;2.97;;;1.30;;
68888;SDS011;55930;47.412;8.790;2023-04-24T16:17:09;3.67;;;1.43;;
68888;SDS011;55930;47.412;8.790;2023-04-24T16:23:50;1.83;;;1.40;;
68888;SDS011;55930;47.412;8.790;2023-04-24T16:27:11;3.80;;;1.42;;
68888;SDS011;55930;47.412;8.790;2023-04-24T16:30:31;3.55;;;1.55;;
68888;SDS011;55930;47.412;8.790;2023-04-24T16:33:52;1.95;;;1.35;;
68888;SDS011;55930;47.412;8.790;2023-04-24T16:37:12;2.77;;;1.63;;
68888;SDS011;55930;47.412;8.790;2023-04-24T16:40:32;2.90;;;1.63;;
68888;SDS011;55930;47.412;8.790;2023-04-24T16:43:53;3.70;;;1.37;;
68888;SDS011;55930;47.412;8.790;2023-04-24T16:47:17;2.47;;;1.60;;
68888;SDS011;55930;47.412;8.790;2023-04-24T16:50:38;2.72;;;1.75;;
68888;SDS011;55930;47.412;8.790;2023-04-24T16:53:59;3.22;;;1.63;;
68888;SDS011;55930;47.412;8.790;2023-04-24T16:57:19;5.90;;;1.63;;
68888;SDS011;55930;47.412;8.790;2023-04-24T17:00:39;3.80;;;2.07;;
68888;SDS011;55930;47.412;8.790;2023-04-24T17:04:00;3.70;;;1.70;;
68888;SDS011;55930;47.412;8.790;2023-04-24T17:07:20;2.92;;;1.50;;
68888;SDS011;55930;47.412;8.790;2023-04-24T17:10:41;2.40;;;1.83;;
68888;SDS011;55930;47.412;8.790;2023-04-24T17:14:01;3.90;;;1.83;;
68888;SDS011;55930;47.412;8.790;2023-04-24T17:17:22;4.40;;;2.33;;
68888;SDS011;55930;47.412;8.790;2023-04-24T17:20:44;5.13;;;2.30;;
68888;SDS011;55930;47.412;8.790;2023-04-24T17:24:07;3.17;;;1.50;;
68888;SDS011;55930;47.412;8.790;2023-04-24T17:27:27;3.17;;;2.00;;
68888;SDS011;55930;47.412;8.790;2023-04-24T17:30:48;3.90;;;1.83;;
68888;SDS011;55930;47.412;8.790;2023-04-24T17:34:10;5.40;;;1.83;;
68888;SDS011;55930;47.412;8.790;2023-04-24T17:37:31;5.40;;;2.03;;
68888;SDS011;55930;47.412;8.790;2023-04-24T17:40:53;4.40;;;1.70;;
68888;SDS011;55930;47.412;8.790;2023-04-24T17:44:17;4.43;;;2.20;;
68888;SDS011;55930;47.412;8.790;2023-04-24T17:47:37;4.03;;;2.20;;
68888;SDS011;55930;47.412;8.790;2023-04-24T17:50:58;3.67;;;1.60;;
68888;SDS011;55930;47.412;8.790;2023-04-24T17:54:18;4.97;;;1.93;;
68888;SDS011;55930;47.412;8.790;2023-04-24T17:57:39;4.43;;;2.23;;
68888;SDS011;55930;47.412;8.790;2023-04-24T18:00:59;2.97;;;1.67;;
68888;SDS011;55930;47.412;8.790;2023-04-24T18:04:20;3.47;;;1.90;;
68888;SDS011;55930;47.412;8.790;2023-04-24T18:07:40;4.47;;;1.83;;
68888;SDS011;55930;47.412;8.790;2023-04-24T18:11:01;4.63;;;2.20;;
68888;SDS011;55930;47.412;8.790;2023-04-24T18:14:22;4.78;;;2.10;;
68888;SDS011;55930;47.412;8.790;2023-04-24T18:17:44;3.10;;;1.80;;
68888;SDS011;55930;47.412;8.790;2023-04-24T18:21:05;2.78;;;1.92;;
68888;SDS011;55930;47.412;8.790;2023-04-24T18:24:25;4.07;;;2.23;;
68888;SDS011;55930;47.412;8.790;2023-04-24T18:27:46;3.13;;;2.00;;
68888;SDS011;55930;47.412;8.790;2023-04-24T18:31:06;3.97;;;2.10;;
68888;SDS011;55930;47.412;8.790;2023-04-24T18:34:28;5.95;;;2.35;;
68888;SDS011;55930;47.412;8.790;2023-04-24T18:37:50;3.97;;;3.13;;
68888;SDS011;55930;47.412;8.790;2023-04-24T18:48:00;5.57;;;2.60;;
68888;SDS011;55930;47.412;8.790;2023-04-24T18:51:21;6.80;;;2.55;;
68888;SDS011;55930;47.412;8.790;2023-04-24T18:54:41;6.80;;;2.53;;
68888;SDS011;55930;47.412;8.790;2023-04-24T18:58:02;4.43;;;3.10;;
68888;SDS011;55930;47.412;8.790;2023-04-24T19:01:22;3.87;;;2.60;;
68888;SDS011;55930;47.412;8.790;2023-04-24T19:04:43;8.03;;;3.10;;
68888;SDS011;55930;47.412;8.790;2023-04-24T19:08:03;6.13;;;2.97;;
68888;SDS011;55930;47.412;8.790;2023-04-24T19:11:24;4.90;;;2.63;;
68888;SDS011;55930;47.412;8.790;2023-04-24T19:14:44;5.03;;;2.70;;
68888;SDS011;55930;47.412;8.790;2023-04-24T19:18:05;7.57;;;2.45;;
68888;SDS011;55930;47.412;8.790;2023-04-24T19:21:26;4.77;;;2.73;;
68888;SDS011;55930;47.412;8.790;2023-04-24T19:24:46;4.93;;;2.90;;
68888;SDS011;55930;47.412;8.790;2023-04-24T19:28:07;8.97;;;2.70;;
68888;SDS011;55930;47.412;8.790;2023-04-24T19:31:28;4.72;;;2.90;;
68888;SDS011;55930;47.412;8.790;2023-04-24T19:34:48;6.17;;;2.60;;
68888;SDS011;55930;47.412;8.790;2023-04-24T19:38:09;5.30;;;2.70;;
68888;SDS011;55930;47.412;8.790;2023-04-24T19:41:30;6.22;;;2.97;;
68888;SDS011;55930;47.412;8.790;2023-04-24T19:44:50;5.43;;;3.27;;
68888;SDS011;55930;47.412;8.790;2023-04-24T19:48:10;6.77;;;2.77;;
68888;SDS011;55930;47.412;8.790;2023-04-24T19:51:31;8.90;;;3.00;;
68888;SDS011;55930;47.412;8.790;2023-04-24T19:54:52;4.65;;;2.83;;
68888;SDS011;55930;47.412;8.790;2023-04-24T19:58:15;5.90;;;3.03;;
68888;SDS011;55930;47.412;8.790;2023-04-24T20:01:35;6.87;;;2.90;;
68888;SDS011;55930;47.412;8.790;2023-04-24T20:04:58;5.97;;;3.28;;
68888;SDS011;55930;47.412;8.790;2023-04-24T20:08:19;6.80;;;3.23;;
68888;SDS011;55930;47.412;8.790;2023-04-24T20:11:39;4.50;;;3.00;;
68888;SDS011;55930;47.412;8.790;2023-04-24T20:15:01;6.00;;;2.70;;
68888;SDS011;55930;47.412;8.790;2023-04-24T20:18:22;5.07;;;3.13;;
68888;SDS011;55930;47.412;8.790;2023-04-24T20:21:43;7.17;;;3.40;;
68888;SDS011;55930;47.412;8.790;2023-04-24T20:25:07;5.57;;;2.83;;
68888;SDS011;55930;47.412;8.790;2023-04-24T20:28:30;5.43;;;3.15;;
68888;SDS011;55930;47.412;8.790;2023-04-24T20:31:51;5.30;;;3.25;;
68888;SDS011;55930;47.412;8.790;2023-04-24T20:35:12;3.97;;;3.00;;
68888;SDS011;55930;47.412;8.790;2023-04-24T20:38:32;7.53;;;2.77;;
68888;SDS011;55930;47.412;8.790;2023-04-24T20:41:55;7.13;;;3.43;;
68888;SDS011;55930;47.412;8.790;2023-04-24T20:45:17;7.55;;;3.28;;
68888;SDS011;55930;47.412;8.790;2023-04-24T20:48:37;4.87;;;3.03;;
68888;SDS011;55930;47.412;8.790;2023-04-24T20:51:58;8.73;;;3.67;;
68888;SDS011;55930;47.412;8.790;2023-04-24T20:55:18;7.80;;;3.10;;
68888;SDS011;55930;47.412;8.790;2023-04-24T20:58:39;7.03;;;3.47;;
68888;SDS011;55930;47.412;8.790;2023-04-24T21:02:03;6.80;;;4.13;;
68888;SDS011;55930;47.412;8.790;2023-04-24T21:05:27;7.32;;;3.58;;
68888;SDS011;55930;47.412;8.790;2023-04-24T21:08:47;5.80;;;3.80;;
68888;SDS011;55930;47.412;8.790;2023-04-24T21:12:07;6.30;;;3.13;;